Time;durP1;ratioP1;P1;durP2;ratioP2;P2;SDS_P1;SDS_P2;PMS_P1;PMS_P2;Temp;Humidity;BMP_temperature;BMP_pressure;BME280_temperature;BME280_humidity;BME280_pressure;Samples;Min_cycle;Max_cycle;Signal;HPM_P1;HPM_P2
2021/08/12 00:02:03;;;;;;;7.95;7.18;;;16.70;99.90;;;;;;5048186;28;20210;-88
2021/08/12 00:04:31;;;;;;;7.88;6.88;;;16.60;99.90;;;;;;5030872;28;20210;-88
2021/08/12 00:06:59;;;;;;;7.18;6.57;;;16.60;99.90;;;;;;5030193;28;20306;-86
2021/08/12 00:09:25;;;;;;;7.20;6.47;;;16.50;99.90;;;;;;5029730;28;20222;-87
2021/08/12 00:11:53;;;;;;;8.48;7.68;;;16.50;99.90;;;;;;5030508;28;20222;-87
2021/08/12 00:14:20;;;;;;;8.30;7.50;;;16.50;99.90;;;;;;5030300;28;20202;-87
2021/08/12 00:16:47;;;;;;;7.15;6.45;;;16.50;99.90;;;;;;5030602;28;20195;-87
2021/08/12 00:19:13;;;;;;;8.43;7.63;;;16.50;99.90;;;;;;5030226;28;20202;-83
2021/08/12 00:21:43;;;;;;;8.55;7.22;;;16.40;99.90;;;;;;5037606;28;20210;-86
2021/08/12 00:24:10;;;;;;;8.65;7.22;;;16.40;99.90;;;;;;5050213;28;20202;-88
2021/08/12 00:26:36;;;;;;;8.00;7.20;;;16.40;99.90;;;;;;5049734;28;20765;-87
2021/08/12 00:29:04;;;;;;;7.55;6.50;;;16.40;99.90;;;;;;5050629;28;20226;-84
2021/08/12 00:31:32;;;;;;;6.90;6.30;;;16.40;99.90;;;;;;5050166;28;20209;-86
2021/08/12 00:33:58;;;;;;;7.38;6.68;;;16.30;99.90;;;;;;5047300;28;20204;-87
2021/08/12 00:36:25;;;;;;;8.00;7.10;;;16.30;99.90;;;;;;5041864;28;20199;-86
2021/08/12 00:38:53;;;;;;;6.72;5.97;;;16.30;99.90;;;;;;5027247;28;20218;-87
2021/08/12 00:41:21;;;;;;;6.32;5.82;;;16.30;99.90;;;;;;5028451;28;20199;-87
2021/08/12 00:43:48;;;;;;;7.05;6.45;;;16.30;99.90;;;;;;5031912;28;20214;-86
2021/08/12 00:46:15;;;;;;;6.38;5.78;;;16.30;99.90;;;;;;5052208;28;20205;-87
2021/08/12 00:48:42;;;;;;;6.80;5.97;;;16.30;99.90;;;;;;5052451;28;20234;-86
2021/08/12 00:51:08;;;;;;;6.55;5.95;;;16.20;99.90;;;;;;5050903;28;20193;-86
2021/08/12 00:53:36;;;;;;;6.63;6.03;;;16.20;99.90;;;;;;5036835;28;20210;-87
2021/08/12 00:56:04;;;;;;;7.05;6.38;;;16.20;99.90;;;;;;5033282;28;20244;-86
2021/08/12 00:58:35;;;;;;;6.35;5.75;;;16.20;99.90;;;;;;5049474;28;20626;-86
2021/08/12 01:01:01;;;;;;;7.30;6.60;;;16.20;99.90;;;;;;5053862;28;20206;-86
2021/08/12 01:03:28;;;;;;;6.28;5.50;;;16.20;99.90;;;;;;5053199;28;20202;-86
2021/08/12 01:05:56;;;;;;;7.75;5.78;;;16.20;99.90;;;;;;5053895;28;20325;-86
2021/08/12 01:08:33;;;;;;;8.57;7.13;;;16.20;99.90;;;;;;5035567;28;21005;-88
2021/08/12 01:11:07;;;;;;;7.03;6.32;;;16.20;99.90;;;;;;5033614;28;20218;-86
2021/08/12 01:13:48;;;;;;;7.47;6.75;;;16.20;99.90;;;;;;5033496;28;20580;-87
2021/08/12 01:16:20;;;;;;;6.40;5.75;;;16.20;99.90;;;;;;5053740;28;20198;-86
2021/08/12 01:18:55;;;;;;;7.78;6.57;;;16.20;99.90;;;;;;5053578;28;20812;-87
2021/08/12 01:21:38;;;;;;;7.30;6.32;;;16.20;99.90;;;;;;5053306;28;20217;-86
2021/08/12 01:24:10;;;;;;;7.85;6.72;;;16.20;99.90;;;;;;5053112;28;20206;-87
2021/08/12 01:26:42;;;;;;;8.30;6.60;;;16.20;99.90;;;;;;5053501;28;20438;-87
2021/08/12 01:29:14;;;;;;;8.32;7.47;;;16.20;99.90;;;;;;5052929;28;20232;-87
2021/08/12 01:31:58;;;;;;;6.75;6.05;;;16.10;99.90;;;;;;5052255;28;20613;-85
2021/08/12 01:34:31;;;;;;;6.90;6.18;;;16.10;99.90;;;;;;5053462;28;20206;-86
2021/08/12 01:37:01;;;;;;;7.80;6.43;;;16.10;99.90;;;;;;5052976;28;20613;-85
2021/08/12 01:39:28;;;;;;;8.13;7.32;;;16.10;99.90;;;;;;5034907;28;20474;-86
2021/08/12 01:41:56;;;;;;;7.90;7.10;;;16.10;99.90;;;;;;5033356;28;20621;-86
2021/08/12 01:44:25;;;;;;;8.25;6.20;;;16.10;99.90;;;;;;5032987;28;20195;-86
2021/08/12 01:46:53;;;;;;;6.00;5.50;;;16.00;99.90;;;;;;5033477;28;20206;-86
2021/08/12 01:49:20;;;;;;;7.60;6.80;;;16.00;99.90;;;;;;5039981;28;20242;-84
2021/08/12 01:51:50;;;;;;;7.75;6.65;;;16.00;99.90;;;;;;5053599;28;20236;-86
2021/08/12 01:54:19;;;;;;;6.43;5.82;;;16.00;99.90;;;;;;5052193;28;20225;-85
2021/08/12 01:56:46;;;;;;;9.50;8.05;;;16.00;99.90;;;;;;5036511;28;20206;-86
2021/08/12 01:59:16;;;;;;;7.38;6.68;;;16.00;99.90;;;;;;5032795;28;20747;-87
2021/08/12 02:01:47;;;;;;;7.28;6.57;;;16.00;99.90;;;;;;5033631;28;20214;-84
2021/08/12 02:04:15;;;;;;;5.75;5.15;;;16.00;99.90;;;;;;5036738;28;20213;-83
2021/08/12 02:06:42;;;;;;;7.07;5.80;;;16.00;99.90;;;;;;5052987;28;20202;-84
2021/08/12 02:09:10;;;;;;;6.28;5.75;;;15.90;99.90;;;;;;5052057;28;20237;-86
2021/08/12 02:11:39;;;;;;;5.93;5.32;;;15.90;99.90;;;;;;5053695;28;20489;-86
2021/08/12 02:14:06;;;;;;;5.78;5.28;;;15.90;99.90;;;;;;5053289;28;20216;-87
2021/08/12 02:16:33;;;;;;;6.28;5.65;;;15.80;99.90;;;;;;5052775;28;20201;-86
2021/08/12 02:19:00;;;;;;;6.72;6.13;;;15.80;99.90;;;;;;5037240;28;20214;-86
2021/08/12 02:21:33;;;;;;;6.53;5.93;;;15.80;99.90;;;;;;5038483;28;20178;-84
2021/08/12 02:24:03;;;;;;;5.65;5.15;;;15.80;99.90;;;;;;5046514;28;20206;-83
2021/08/12 02:26:35;;;;;;;6.47;5.88;;;15.80;99.90;;;;;;5037974;28;20217;-85
2021/08/12 02:29:04;;;;;;;6.40;5.45;;;15.80;99.90;;;;;;5037208;28;20226;-84
2021/08/12 02:31:32;;;;;;;5.45;4.95;;;15.80;99.90;;;;;;5031766;28;20496;-86
2021/08/12 02:34:00;;;;;;;7.47;6.47;;;15.80;99.90;;;;;;5031180;28;20206;-86
2021/08/12 02:36:27;;;;;;;6.20;5.47;;;15.70;99.90;;;;;;5030975;28;20218;-86
2021/08/12 02:38:55;;;;;;;6.03;5.47;;;15.70;99.90;;;;;;5030515;28;20209;-84
2021/08/12 02:41:23;;;;;;;6.35;5.85;;;15.70;99.90;;;;;;5030568;28;20202;-83
2021/08/12 02:43:50;;;;;;;7.07;6.38;;;15.70;99.90;;;;;;5039499;28;20286;-85
2021/08/12 02:46:22;;;;;;;6.53;5.93;;;15.70;99.90;;;;;;5050954;28;20210;-83
2021/08/12 02:48:50;;;;;;;8.13;6.85;;;15.70;99.90;;;;;;5040517;28;20258;-86
2021/08/12 02:51:17;;;;;;;6.85;6.10;;;15.70;99.90;;;;;;5031054;28;20206;-86
2021/08/12 02:53:44;;;;;;;8.40;7.50;;;15.70;99.90;;;;;;5031716;28;20207;-87
2021/08/12 02:56:13;;;;;;;6.93;6.18;;;15.60;99.90;;;;;;5031689;28;20206;-86
2021/08/12 02:58:42;;;;;;;7.25;6.55;;;15.60;99.90;;;;;;5031513;28;20203;-87
2021/08/12 03:01:10;;;;;;;8.23;7.43;;;15.60;99.90;;;;;;5030810;28;20210;-84
2021/08/12 03:03:42;;;;;;;7.28;6.57;;;15.60;99.90;;;;;;5031028;28;20206;-86
2021/08/12 03:06:13;;;;;;;6.65;6.05;;;15.60;99.90;;;;;;5031735;28;20306;-86
2021/08/12 03:08:41;;;;;;;7.43;6.53;;;15.60;99.90;;;;;;5050757;28;20850;-84
2021/08/12 03:11:10;;;;;;;7.13;6.32;;;15.50;99.90;;;;;;5049120;28;20218;-85
2021/08/12 03:13:37;;;;;;;6.90;6.20;;;15.50;99.90;;;;;;5052700;28;20257;-86
2021/08/12 03:16:05;;;;;;;7.70;7.00;;;15.60;99.90;;;;;;5051955;28;20201;-86
2021/08/12 03:18:33;;;;;;;7.85;6.75;;;15.60;99.90;;;;;;5051026;28;20217;-86
2021/08/12 03:21:07;;;;;;;7.40;6.60;;;15.50;99.90;;;;;;5050926;28;20226;-87
2021/08/12 03:23:34;;;;;;;8.57;7.43;;;15.50;99.90;;;;;;5051420;28;20467;-86
2021/08/12 03:26:00;;;;;;;8.02;6.88;;;15.50;99.90;;;;;;5048863;28;20528;-86
2021/08/12 03:28:27;;;;;;;7.05;6.45;;;15.50;99.90;;;;;;5030977;28;20190;-85
2021/08/12 03:30:54;;;;;;;8.82;7.60;;;15.50;99.90;;;;;;5030506;28;20198;-85
2021/08/12 03:33:21;;;;;;;8.65;7.75;;;15.50;99.90;;;;;;5031324;28;20198;-86
2021/08/12 03:35:48;;;;;;;8.30;7.50;;;15.50;99.90;;;;;;5031116;28;20210;-87
2021/08/12 03:38:16;;;;;;;8.82;7.93;;;15.50;99.90;;;;;;5030215;28;20207;-87
2021/08/12 03:40:43;;;;;;;8.88;7.65;;;15.50;99.90;;;;;;5030952;28;20213;-86
2021/08/12 03:43:10;;;;;;;9.82;8.07;;;15.50;99.90;;;;;;5030326;28;20202;-87
2021/08/12 03:45:36;;;;;;;15.60;12.35;;;15.50;99.90;;;;;;5045565;28;20230;-86
2021/08/12 03:48:04;;;;;;;17.92;12.73;;;15.50;99.90;;;;;;5043927;28;20230;-87
2021/08/12 03:50:30;;;;;;;14.13;11.95;;;15.50;99.90;;;;;;5029755;28;20230;-84
2021/08/12 03:52:57;;;;;;;16.20;13.55;;;15.50;99.90;;;;;;5042818;28;20205;-87
2021/08/12 03:55:25;;;;;;;21.85;17.02;;;15.60;99.90;;;;;;5075895;23;20228;-83
2021/08/12 03:57:52;;;;;;;20.38;16.77;;;15.60;99.90;;;;;;5075190;28;20216;-87
2021/08/12 04:00:19;;;;;;;23.15;17.70;;;15.60;99.90;;;;;;5070937;28;20208;-88
2021/08/12 04:02:46;;;;;;;22.95;16.77;;;15.60;99.90;;;;;;5070895;28;20209;-85
2021/08/12 04:05:13;;;;;;;19.92;16.80;;;15.60;99.90;;;;;;5070118;28;20201;-86
2021/08/12 04:07:39;;;;;;;20.55;15.07;;;15.60;99.90;;;;;;5069971;28;20208;-85
2021/08/12 04:10:07;;;;;;;21.90;16.90;;;15.60;99.90;;;;;;5074929;28;20228;-86
2021/08/12 04:12:35;;;;;;;21.90;17.60;;;15.60;99.90;;;;;;5090568;28;20870;-86
2021/08/12 04:15:02;;;;;;;19.75;15.90;;;15.60;99.90;;;;;;5090439;28;20751;-85
2021/08/12 04:17:29;;;;;;;20.80;15.63;;;15.60;99.90;;;;;;5091267;28;20199;-87
2021/08/12 04:19:56;;;;;;;19.92;16.63;;;15.50;99.90;;;;;;5077004;28;20220;-86
2021/08/12 04:22:23;;;;;;;21.25;16.85;;;15.50;99.90;;;;;;5074245;28;20201;-84
2021/08/12 04:24:50;;;;;;;23.65;19.40;;;15.50;99.90;;;;;;5074298;28;20212;-87
2021/08/12 04:27:17;;;;;;;21.15;18.02;;;15.60;99.90;;;;;;5074512;28;20855;-85
2021/08/12 04:29:45;;;;;;;20.45;17.77;;;15.50;99.90;;;;;;5074723;28;20300;-86
2021/08/12 04:32:12;;;;;;;19.15;16.88;;;15.50;99.90;;;;;;5074398;28;20208;-87
2021/08/12 04:34:39;;;;;;;20.42;15.82;;;15.50;99.90;;;;;;5093205;28;20212;-87
2021/08/12 04:37:06;;;;;;;20.85;16.40;;;15.50;99.90;;;;;;5091446;28;20205;-87
2021/08/12 04:39:33;;;;;;;20.95;17.35;;;15.50;99.90;;;;;;5088116;28;20200;-86
2021/08/12 04:42:00;;;;;;;18.73;15.70;;;15.50;99.90;;;;;;5079106;28;20208;-88
2021/08/12 04:44:26;;;;;;;18.30;14.93;;;15.50;99.90;;;;;;5074307;28;20201;-84
2021/08/12 04:46:54;;;;;;;23.08;16.88;;;15.50;99.90;;;;;;5073306;28;20205;-86
2021/08/12 04:49:21;;;;;;;18.92;15.90;;;15.50;99.90;;;;;;5074138;28;20225;-86
2021/08/12 04:51:48;;;;;;;22.48;17.60;;;15.50;99.90;;;;;;5073575;28;20486;-86
2021/08/12 04:54:16;;;;;;;23.60;18.48;;;15.50;99.90;;;;;;5072928;28;20209;-83
2021/08/12 04:56:43;;;;;;;20.40;17.58;;;15.50;99.90;;;;;;5072311;28;20220;-86
2021/08/12 04:59:10;;;;;;;20.38;16.40;;;15.50;99.90;;;;;;5084560;28;20204;-86
2021/08/12 05:01:37;;;;;;;21.00;17.50;;;15.50;99.90;;;;;;5079907;28;20212;-84
2021/08/12 05:04:05;;;;;;;22.08;17.05;;;15.60;99.90;;;;;;5072120;28;20608;-83
2021/08/12 05:06:33;;;;;;;22.15;18.08;;;15.60;99.90;;;;;;5072961;28;20224;-86
2021/08/12 05:09:00;;;;;;;26.65;21.00;;;15.60;99.90;;;;;;5073437;28;20205;-88
2021/08/12 05:11:27;;;;;;;20.38;17.50;;;15.60;99.90;;;;;;5073551;28;20452;-86
2021/08/12 05:13:54;;;;;;;19.80;17.58;;;15.60;99.90;;;;;;5073245;28;20590;-86
2021/08/12 05:16:21;;;;;;;21.55;16.92;;;15.60;99.90;;;;;;5073458;28;20929;-87
2021/08/12 05:18:48;;;;;;;19.13;15.00;;;15.60;99.90;;;;;;5073231;28;20197;-87
2021/08/12 05:21:16;;;;;;;24.58;18.33;;;15.60;99.90;;;;;;5077569;28;20205;-85
2021/08/12 05:23:44;;;;;;;21.17;16.60;;;15.60;99.90;;;;;;5093270;28;20185;-86
2021/08/12 05:26:11;;;;;;;21.67;16.95;;;15.60;99.90;;;;;;5078342;28;20213;-87
2021/08/12 05:28:38;;;;;;;24.88;18.73;;;15.60;99.90;;;;;;5073098;28;20193;-84
2021/08/12 05:31:05;;;;;;;20.92;16.65;;;15.60;99.90;;;;;;5090913;28;20220;-85
2021/08/12 05:33:34;;;;;;;24.88;19.40;;;15.70;99.90;;;;;;5080183;28;20212;-86
2021/08/12 05:36:00;;;;;;;30.80;23.02;;;15.70;99.90;;;;;;5073150;28;20208;-85
2021/08/12 05:38:29;;;;;;;37.00;26.20;;;15.70;99.90;;;;;;5072108;28;20193;-86
2021/08/12 05:40:57;;;;;;;30.55;23.30;;;15.80;99.90;;;;;;5078003;28;20251;-87
2021/08/12 05:43:24;;;;;;;30.05;21.23;;;15.80;99.90;;;;;;5093204;28;20227;-87
2021/08/12 05:45:51;;;;;;;26.92;21.35;;;15.90;99.90;;;;;;5093311;28;20184;-87
2021/08/12 05:48:19;;;;;;;33.58;24.15;;;16.00;99.90;;;;;;5093489;28;20197;-88
2021/08/12 05:50:46;;;;;;;29.30;23.55;;;16.00;99.90;;;;;;5093176;28;20220;-86
2021/08/12 05:53:12;;;;;;;31.25;24.10;;;16.10;99.90;;;;;;5089301;28;20198;-87
2021/08/12 05:55:41;;;;;;;29.08;22.83;;;16.20;99.90;;;;;;5073122;28;20237;-89
2021/08/12 05:58:08;;;;;;;33.67;22.70;;;16.30;99.90;;;;;;5073139;28;20200;-86
2021/08/12 06:00:35;;;;;;;25.27;20.02;;;16.40;99.90;;;;;;5085685;28;20212;-88
2021/08/12 06:03:06;;;;;;;26.50;21.45;;;16.50;99.90;;;;;;5075449;28;20200;-87
2021/08/12 06:05:33;;;;;;;24.27;19.38;;;16.60;99.90;;;;;;5080982;28;20512;-87
2021/08/12 06:08:01;;;;;;;22.25;18.35;;;16.70;99.90;;;;;;5072593;28;20224;-87
2021/08/12 06:10:28;;;;;;;24.02;17.60;;;16.80;99.90;;;;;;5070077;28;20228;-87
2021/08/12 06:12:56;;;;;;;21.90;18.40;;;16.90;99.90;;;;;;5072025;28;20212;-87
2021/08/12 06:15:23;;;;;;;23.42;16.73;;;17.00;99.90;;;;;;5089559;28;20228;-87
2021/08/12 06:17:50;;;;;;;20.15;16.15;;;17.10;99.90;;;;;;5089777;28;20528;-89
2021/08/12 06:20:18;;;;;;;22.02;15.93;;;17.10;99.90;;;;;;5090934;28;20250;-87
2021/08/12 06:22:44;;;;;;;18.17;14.60;;;17.20;99.90;;;;;;5088673;28;20281;-87
2021/08/12 06:25:12;;;;;;;15.40;13.65;;;17.40;99.90;;;;;;5072258;28;20216;-85
2021/08/12 06:27:39;;;;;;;17.98;13.63;;;17.50;99.90;;;;;;5071024;28;20209;-87
2021/08/12 06:30:10;;;;;;;16.77;13.45;;;17.70;99.90;;;;;;5076628;28;20763;-87
2021/08/12 06:32:37;;;;;;;17.35;13.25;;;17.90;99.90;;;;;;5092683;28;20204;-88
2021/08/12 06:35:06;;;;;;;18.30;12.45;;;18.20;99.90;;;;;;5092717;28;20197;-88
2021/08/12 06:37:42;;;;;;;13.48;11.55;;;18.50;99.90;;;;;;5079556;28;20210;-88
2021/08/12 06:40:10;;;;;;;14.25;10.63;;;18.80;99.90;;;;;;5071643;28;20197;-88
2021/08/12 06:42:37;;;;;;;10.75;9.57;;;19.00;99.90;;;;;;5071540;28;20567;-86
2021/08/12 06:45:05;;;;;;;14.90;10.88;;;19.30;99.90;;;;;;5086800;28;20297;-90
2021/08/12 06:47:35;;;;;;;10.88;9.48;;;19.50;99.90;;;;;;5092208;28;20279;-88
2021/08/12 06:50:02;;;;;;;12.40;8.70;;;19.80;99.90;;;;;;5072306;28;20327;-89
2021/08/12 06:52:29;;;;;;;11.57;8.65;;;20.10;99.90;;;;;;5071844;28;20197;-89
2021/08/12 06:54:55;;;;;;;12.80;9.30;;;20.30;99.90;;;;;;5071446;28;20225;-86
2021/08/12 06:57:22;;;;;;;9.70;8.68;;;20.50;99.90;;;;;;5071258;28;20213;-82
2021/08/12 06:59:49;;;;;;;10.70;7.82;;;20.70;99.90;;;;;;5072127;28;20201;-86
2021/08/12 07:05:47;;;;;;;7.18;4.82;;;21.20;99.90;;;;;;5070241;28;20208;-88
2021/08/12 07:08:13;;;;;;;6.93;4.70;;;21.50;99.90;;;;;;5071162;28;20212;-87
2021/08/12 07:10:40;;;;;;;6.70;4.43;;;21.70;99.90;;;;;;5070211;28;20260;-89
2021/08/12 07:13:07;;;;;;;7.78;4.10;;;21.90;99.90;;;;;;5069673;28;20201;-89
2021/08/12 07:15:34;;;;;;;6.22;4.05;;;22.10;99.90;;;;;;5072319;28;20879;-85
2021/08/12 07:18:01;;;;;;;3.15;2.70;;;22.30;99.90;;;;;;5073880;28;20287;-86
2021/08/12 07:20:27;;;;;;;4.70;2.55;;;22.60;99.90;;;;;;5071830;28;20209;-88
2021/08/12 07:22:56;;;;;;;4.03;2.60;;;22.70;99.90;;;;;;5070235;28;20201;-84
2021/08/12 07:25:23;;;;;;;3.45;1.98;;;22.90;99.90;;;;;;5072059;28;20208;-87
2021/08/12 07:27:50;;;;;;;3.83;2.55;;;23.00;99.90;;;;;;5072824;28;20220;-87
2021/08/12 07:30:17;;;;;;;3.20;2.38;;;23.20;99.90;;;;;;5070818;28;20660;-87
2021/08/12 07:32:44;;;;;;;3.47;2.15;;;23.30;99.90;;;;;;5072064;28;20208;-89
2021/08/12 07:35:12;;;;;;;4.63;2.70;;;23.50;99.90;;;;;;5071887;28;20570;-85
2021/08/12 07:37:38;;;;;;;3.88;2.15;;;23.70;99.90;;;;;;5071139;28;20201;-86
2021/08/12 07:40:08;;;;;;;2.55;2.35;;;23.80;99.90;;;;;;5070805;28;20204;-88
2021/08/12 07:42:35;;;;;;;5.40;2.30;;;24.00;99.90;;;;;;5094256;28;20211;-84
2021/08/12 07:45:03;;;;;;;3.45;2.25;;;24.10;99.90;;;;;;5100035;28;20918;-87
2021/08/12 07:47:32;;;;;;;4.15;2.58;;;24.00;99.90;;;;;;5093535;28;20208;-83
2021/08/12 07:49:59;;;;;;;5.00;2.42;;;24.00;99.90;;;;;;5092959;28;20691;-86
2021/08/12 07:52:26;;;;;;;5.00;2.63;;;24.00;99.90;;;;;;5092505;28;20205;-88
2021/08/12 07:54:53;;;;;;;3.90;2.15;;;24.10;99.90;;;;;;5076847;28;20253;-85
2021/08/12 07:57:21;;;;;;;3.78;2.40;;;24.10;99.90;;;;;;5071034;28;20495;-87
2021/08/12 07:59:47;;;;;;;3.25;2.22;;;24.20;99.90;;;;;;5070756;28;20220;-88
2021/08/12 08:02:15;;;;;;;5.20;2.63;;;24.30;99.90;;;;;;5070910;28;20205;-85
2021/08/12 08:04:43;;;;;;;4.30;2.38;;;24.40;99.90;;;;;;5084003;28;20210;-86
2021/08/12 08:07:10;;;;;;;3.35;2.28;;;24.70;99.90;;;;;;5090187;28;20192;-89
2021/08/12 08:09:37;;;;;;;3.30;2.42;;;24.80;99.90;;;;;;5081776;28;20213;-87
2021/08/12 08:12:04;;;;;;;5.30;2.90;;;25.00;99.90;;;;;;5069345;28;20233;-86
2021/08/12 08:14:32;;;;;;;4.20;2.50;;;24.90;99.90;;;;;;5091163;28;20218;-86
2021/08/12 08:16:59;;;;;;;2.67;2.25;;;25.00;99.90;;;;;;5089747;28;20204;-86
2021/08/12 08:19:29;;;;;;;5.03;2.42;;;25.20;99.90;;;;;;5091353;28;20204;-89
2021/08/12 08:21:55;;;;;;;2.83;1.90;;;25.50;99.90;;;;;;5081687;28;20293;-86
2021/08/12 08:24:22;;;;;;;5.55;2.38;;;25.60;99.90;;;;;;5070566;28;20201;-94
2021/08/12 08:26:49;;;;;;;3.78;2.10;;;25.50;99.90;;;;;;5074595;28;20200;-89
2021/08/12 08:29:16;;;;;;;4.75;2.28;;;25.60;99.90;;;;;;5089833;28;20203;-88
2021/08/12 08:31:46;;;;;;;3.20;2.20;;;25.60;99.90;;;;;;5092170;28;20224;-89
2021/08/12 08:34:13;;;;;;;5.07;2.13;;;25.70;99.90;;;;;;5100875;28;20744;-88
2021/08/12 08:36:39;;;;;;;6.13;2.40;;;25.80;99.90;;;;;;5090062;28;20204;-89
2021/08/12 08:39:06;;;;;;;4.60;2.30;;;25.90;99.90;;;;;;5071726;28;20485;-82
2021/08/12 08:41:33;;;;;;;3.10;2.20;;;26.00;99.90;;;;;;5070731;28;20208;-81
2021/08/12 08:44:00;;;;;;;3.90;2.05;;;25.90;99.90;;;;;;5072909;28;20211;-83
2021/08/12 08:46:27;;;;;;;5.95;2.38;;;26.00;99.90;;;;;;5090162;28;20207;-88
2021/08/12 08:48:58;;;;;;;5.80;2.67;;;25.90;99.90;;;;;;5089985;28;20593;-87
2021/08/12 08:51:25;;;;;;;4.13;2.15;;;25.90;99.90;;;;;;5090102;28;20600;-90
2021/08/12 08:53:53;;;;;;;3.40;2.15;;;25.80;99.90;;;;;;5089678;28;20216;-89
2021/08/12 08:56:21;;;;;;;2.35;1.95;;;25.80;99.90;;;;;;5070318;28;20628;-89
2021/08/12 08:58:48;;;;;;;3.95;1.95;;;25.80;99.90;;;;;;5078234;28;20216;-85
2021/08/12 09:01:14;;;;;;;3.50;2.13;;;25.90;99.90;;;;;;5087981;28;20197;-85
2021/08/12 09:03:42;;;;;;;2.58;1.88;;;25.80;99.90;;;;;;5089673;28;20208;-89
2021/08/12 09:06:10;;;;;;;3.33;2.42;;;25.90;99.90;;;;;;5092949;28;20664;-87
2021/08/12 09:08:37;;;;;;;5.90;2.63;;;25.70;99.90;;;;;;5092485;28;20231;-82
2021/08/12 09:11:04;;;;;;;3.83;2.28;;;25.40;99.90;;;;;;5093198;28;20228;-83
2021/08/12 09:13:31;;;;;;;3.28;2.10;;;25.00;99.90;;;;;;5093351;28;20224;-89
2021/08/12 09:15:58;;;;;;;4.50;2.67;;;24.90;99.90;;;;;;5092830;28;20613;-88
2021/08/12 09:18:26;;;;;;;3.97;2.33;;;24.80;99.90;;;;;;5072812;28;20605;-84
2021/08/12 09:20:55;;;;;;;4.63;2.60;;;24.70;99.90;;;;;;5072357;28;20215;-87
2021/08/12 09:23:26;;;;;;;3.75;2.38;;;24.90;99.90;;;;;;5073769;28;20314;-90
2021/08/12 09:25:53;;;;;;;5.82;3.00;;;25.00;99.90;;;;;;5086637;28;20207;-90
2021/08/12 09:28:23;;;;;;;4.32;2.38;;;25.10;99.90;;;;;;5093838;28;20211;-87
2021/08/12 09:31:07;;;;;;;5.05;2.72;;;25.40;99.90;;;;;;5090660;28;20221;-86
2021/08/12 09:33:36;;;;;;;4.72;2.42;;;25.60;99.90;;;;;;5073397;28;20213;-89
2021/08/12 09:36:04;;;;;;;3.45;2.38;;;25.60;99.90;;;;;;5072787;28;20512;-87
2021/08/12 09:38:32;;;;;;;5.10;2.67;;;25.70;99.90;;;;;;5073001;28;20201;-87
2021/08/12 09:41:00;;;;;;;4.50;2.65;;;25.70;99.90;;;;;;5091109;28;20208;-84
2021/08/12 09:43:34;;;;;;;4.45;2.10;;;25.90;99.90;;;;;;5093313;28;20222;-88
2021/08/12 09:46:01;;;;;;;5.13;2.38;;;26.10;99.90;;;;;;5093367;28;20207;-87
2021/08/12 09:48:28;;;;;;;3.58;2.00;;;26.00;99.90;;;;;;5087051;28;20213;-89
2021/08/12 09:51:05;;;;;;;6.55;2.78;;;25.90;99.90;;;;;;5072749;28;20226;-84
2021/08/12 09:53:34;;;;;;;4.30;2.03;;;26.00;99.90;;;;;;5073177;28;20215;-88
2021/08/12 09:56:07;;;;;;;3.70;2.38;;;26.10;99.90;;;;;;5072646;28;20237;-89
2021/08/12 09:58:35;;;;;;;4.18;2.22;;;26.30;99.90;;;;;;5072432;28;20721;-87
2021/08/12 10:01:16;;;;;;;2.83;2.30;;;26.30;99.90;;;;;;5072269;28;20209;-88
2021/08/12 10:03:44;;;;;;;3.83;2.15;;;26.40;99.90;;;;;;5071284;28;20205;-85
2021/08/12 10:06:19;;;;;;;4.45;2.30;;;26.40;99.90;;;;;;5070394;28;20239;-87
2021/08/12 10:08:48;;;;;;;6.20;2.85;;;26.50;99.90;;;;;;5070224;28;20637;-89
2021/08/12 10:11:23;;;;;;;5.82;2.72;;;26.50;99.90;;;;;;5070064;28;20520;-86
2021/08/12 10:13:51;;;;;;;4.80;2.30;;;26.60;99.90;;;;;;5070070;28;20231;-86
2021/08/12 10:16:19;;;;;;;5.05;2.58;;;26.70;99.90;;;;;;5069259;28;20205;-83
2021/08/12 10:18:47;;;;;;;5.75;2.78;;;26.60;99.90;;;;;;5070939;28;20660;-82
2021/08/12 10:21:16;;;;;;;3.80;2.30;;;26.60;99.90;;;;;;5069769;28;20201;-84
2021/08/12 10:23:45;;;;;;;5.45;2.88;;;26.60;99.90;;;;;;5069839;28;20201;-85
2021/08/12 10:26:14;;;;;;;6.55;2.97;;;26.70;99.90;;;;;;5070128;28;20204;-85
2021/08/12 10:28:44;;;;;;;4.78;2.63;;;26.70;99.90;;;;;;5070775;28;20968;-89
2021/08/12 10:31:16;;;;;;;5.63;2.53;;;26.80;99.90;;;;;;5070845;28;20229;-83
2021/08/12 10:33:44;;;;;;;6.05;3.03;;;26.70;99.90;;;;;;5071767;28;20206;-88
2021/08/12 10:36:11;;;;;;;5.10;2.75;;;26.60;99.90;;;;;;5070856;28;20272;-85
2021/08/12 10:38:40;;;;;;;4.60;2.42;;;26.50;99.90;;;;;;5071327;28;20583;-87
2021/08/12 10:41:08;;;;;;;4.38;2.38;;;26.50;99.90;;;;;;5071187;28;20783;-86
2021/08/12 10:43:37;;;;;;;4.38;2.38;;;26.60;99.90;;;;;;5088760;28;20197;-85
2021/08/12 10:46:05;;;;;;;5.65;2.80;;;26.80;99.90;;;;;;5090653;28;20193;-87
2021/08/12 10:48:32;;;;;;;5.10;2.50;;;26.80;99.90;;;;;;5092007;28;20648;-89
2021/08/12 10:51:10;;;;;;;4.28;2.53;;;26.80;99.90;;;;;;5092344;28;20270;-91
2021/08/12 10:53:38;;;;;;;6.25;3.17;;;26.90;99.90;;;;;;5077741;28;20209;-88
2021/08/12 10:56:10;;;;;;;4.53;2.47;;;26.90;99.90;;;;;;5070909;28;20228;-88
2021/08/12 10:58:44;;;;;;;5.97;2.90;;;27.10;99.90;;;;;;5071444;28;20484;-89
2021/08/12 11:01:13;;;;;;;5.82;2.83;;;27.20;99.90;;;;;;5070073;28;20359;-86
2021/08/12 11:03:45;;;;;;;5.60;2.78;;;27.20;99.90;;;;;;5071441;28;20205;-87
2021/08/12 11:06:15;;;;;;;5.07;2.58;;;27.20;99.90;;;;;;5070471;28;20199;-87
2021/08/12 11:08:59;;;;;;;6.30;2.88;;;27.00;99.90;;;;;;5071188;28;20208;-87
2021/08/12 11:11:56;;;;;;;5.00;3.22;;;27.10;99.90;;;;;;5086714;28;20231;-86
2021/08/12 11:14:52;;;;;;;9.13;3.53;;;27.20;99.90;;;;;;5090987;28;20189;-88
2021/08/12 11:17:20;;;;;;;9.55;3.28;;;27.20;99.90;;;;;;5092644;28;20655;-87
2021/08/12 11:19:48;;;;;;;5.45;3.15;;;27.30;99.90;;;;;;5071053;28;20213;-90
2021/08/12 11:22:31;;;;;;;5.45;3.28;;;27.30;99.90;;;;;;5071168;28;20493;-83
2021/08/12 11:24:58;;;;;;;6.03;3.20;;;27.20;99.90;;;;;;5070684;28;20259;-88
2021/08/12 11:27:44;;;;;;;5.13;2.78;;;27.10;99.90;;;;;;5067568;28;20239;-86
2021/08/12 11:30:50;;;;;;;6.88;3.33;;;27.20;99.90;;;;;;5085283;28;20204;-88
2021/08/12 11:33:33;;;;;;;4.85;2.95;;;27.20;99.90;;;;;;5087462;28;20204;-87
2021/08/12 20:17:23;;;;;;;3.83;3.28;;;19.60;99.90;;;;;;5841734;23;20230;-86
2021/08/12 20:19:50;;;;;;;5.13;4.07;;;19.50;99.90;;;;;;5033269;28;20201;-89
2021/08/12 20:22:17;;;;;;;4.93;4.03;;;19.50;99.90;;;;;;5050285;28;20213;-87
2021/08/12 20:24:44;;;;;;;5.20;3.50;;;19.40;99.90;;;;;;5049854;28;20198;-85
2021/08/12 20:27:10;;;;;;;4.30;3.90;;;19.40;99.90;;;;;;5050827;28;20213;-87
2021/08/12 20:29:37;;;;;;;4.78;3.83;;;19.40;99.90;;;;;;5051057;28;20228;-86
2021/08/12 20:32:04;;;;;;;4.90;3.85;;;19.30;99.90;;;;;;5049308;28;20264;-88
2021/08/12 20:34:33;;;;;;;5.47;4.05;;;19.30;99.90;;;;;;5050574;28;20648;-85
2021/08/12 20:37:02;;;;;;;4.60;4.18;;;19.30;99.90;;;;;;5040072;28;20206;-87
2021/08/12 20:39:29;;;;;;;5.45;4.15;;;19.20;99.90;;;;;;5042300;28;20194;-86
2021/08/12 20:41:56;;;;;;;4.63;4.07;;;19.20;99.90;;;;;;5037075;28;20210;-85
2021/08/12 20:44:23;;;;;;;4.53;4.00;;;19.20;99.90;;;;;;5035213;28;20268;-86
2021/08/12 20:46:50;;;;;;;7.95;4.30;;;19.10;99.90;;;;;;5038577;28;20313;-87
2021/08/12 21:47:28;;;;;;;3.95;3.55;;;18.50;99.90;;;;;;5015080;28;20407;-87
2021/08/12 21:49:55;;;;;;;4.72;3.50;;;18.50;99.90;;;;;;5012952;28;20559;-85
2021/08/12 21:52:22;;;;;;;5.03;4.00;;;18.40;99.90;;;;;;5014950;28;20222;-87
2021/08/12 21:54:49;;;;;;;3.97;3.55;;;18.40;99.90;;;;;;5032088;28;20612;-90
2021/08/12 21:57:16;;;;;;;4.10;3.70;;;18.40;99.90;;;;;;5031136;28;20206;-88
2021/08/12 21:59:43;;;;;;;3.90;3.55;;;18.40;99.90;;;;;;5031192;28;20199;-87
2021/08/12 22:02:10;;;;;;;4.75;3.63;;;18.30;99.90;;;;;;5029139;28;20218;-85
2021/08/12 22:04:38;;;;;;;3.50;3.17;;;18.30;99.90;;;;;;5030089;28;20260;-81
2021/08/12 22:07:05;;;;;;;3.75;3.45;;;18.30;99.90;;;;;;5029112;28;20233;-81
2021/08/12 22:09:32;;;;;;;3.78;3.47;;;18.20;99.90;;;;;;5028550;28;20597;-86
2021/08/12 22:11:59;;;;;;;3.83;3.40;;;18.20;99.90;;;;;;5026894;28;20235;-86
2021/08/12 22:14:26;;;;;;;5.03;4.28;;;18.20;99.90;;;;;;5028215;28;20199;-85
2021/08/12 22:16:53;;;;;;;4.05;3.70;;;18.20;99.90;;;;;;5029396;28;20229;-81
2021/08/12 22:19:19;;;;;;;4.65;4.25;;;18.10;99.90;;;;;;5028370;28;20591;-86
2021/08/12 22:21:48;;;;;;;4.22;3.83;;;18.10;99.90;;;;;;5028280;28;20211;-85
2021/08/12 22:24:15;;;;;;;7.88;4.25;;;18.10;99.90;;;;;;5027204;28;20225;-89
2021/08/12 22:26:42;;;;;;;4.38;3.97;;;18.10;99.90;;;;;;5028484;28;20218;-86
2021/08/12 22:29:09;;;;;;;5.68;4.60;;;18.10;99.90;;;;;;5026679;28;20218;-82
2021/08/12 22:31:37;;;;;;;4.57;4.18;;;18.10;99.90;;;;;;5028278;28;20201;-80
2021/08/12 22:34:06;;;;;;;4.60;4.20;;;18.10;99.90;;;;;;5016935;28;20213;-87